Terminal Aerodrome Forecast
Issued by NWS

Home | Current Version | Previous Version | Text Only | Print | Product List | Glossary On
Versions: 1 2 3 4 5 6 7 8 9 10 11 12 13 14 15 16
000
FTUS44 KLZK 010533
TAFBPK
TAF
KBPK 010533Z 0106/0206 00000KT P6SM VCSH SCT035 OVC150
     FM010900 VRB02KT 6SM BR SCT020 BKN040
      TEMPO 0109/0112 4SM -SHRA BR BKN020
     FM011500 30008KT P6SM VCTS SCT020CB BKN050=

USA.gov is the U.S. government's official web portal to all federal, state and local government web resources and services.